sensor_id;sensor_type;location;lat;lon;timestamp;P1;durP1;ratioP1;P2;durP2;ratioP2
21754;SDS011;11039;50.028;19.938;2024-01-15T00:00:07;4.47;;;3.58;;
21754;SDS011;11039;50.028;19.938;2024-01-15T00:02:33;4.00;;;3.60;;
21754;SDS011;11039;50.028;19.938;2024-01-15T00:04:59;4.85;;;4.00;;
21754;SDS011;11039;50.028;19.938;2024-01-15T00:07:25;4.60;;;3.70;;
21754;SDS011;11039;50.028;19.938;2024-01-15T00:09:51;4.82;;;3.97;;
21754;SDS011;11039;50.028;19.938;2024-01-15T00:12:18;4.68;;;3.80;;
21754;SDS011;11039;50.028;19.938;2024-01-15T00:14:44;5.45;;;3.80;;
21754;SDS011;11039;50.028;19.938;2024-01-15T00:17:10;5.90;;;3.83;;
21754;SDS011;11039;50.028;19.938;2024-01-15T00:19:36;4.75;;;3.80;;
21754;SDS011;11039;50.028;19.938;2024-01-15T00:22:02;5.18;;;3.60;;
21754;SDS011;11039;50.028;19.938;2024-01-15T00:24:28;5.25;;;3.90;;
21754;SDS011;11039;50.028;19.938;2024-01-15T00:26:54;4.72;;;3.80;;
21754;SDS011;11039;50.028;19.938;2024-01-15T00:29:20;4.38;;;3.45;;
21754;SDS011;11039;50.028;19.938;2024-01-15T00:31:47;4.82;;;3.65;;
21754;SDS011;11039;50.028;19.938;2024-01-15T00:34:13;4.50;;;3.63;;
21754;SDS011;11039;50.028;19.938;2024-01-15T00:36:39;4.28;;;3.67;;
21754;SDS011;11039;50.028;19.938;2024-01-15T00:39:05;4.28;;;3.65;;
21754;SDS011;11039;50.028;19.938;2024-01-15T00:41:31;3.95;;;3.20;;
21754;SDS011;11039;50.028;19.938;2024-01-15T00:43:57;3.85;;;3.45;;
21754;SDS011;11039;50.028;19.938;2024-01-15T00:46:23;3.92;;;3.15;;
21754;SDS011;11039;50.028;19.938;2024-01-15T00:48:49;4.38;;;3.42;;
21754;SDS011;11039;50.028;19.938;2024-01-15T00:51:15;3.72;;;3.28;;
21754;SDS011;11039;50.028;19.938;2024-01-15T00:53:41;4.95;;;3.63;;
21754;SDS011;11039;50.028;19.938;2024-01-15T00:56:07;4.32;;;3.15;;
21754;SDS011;11039;50.028;19.938;2024-01-15T00:58:33;4.13;;;3.17;;
21754;SDS011;11039;50.028;19.938;2024-01-15T01:00:59;3.45;;;3.08;;
21754;SDS011;11039;50.028;19.938;2024-01-15T01:03:25;4.07;;;3.28;;
21754;SDS011;11039;50.028;19.938;2024-01-15T01:05:51;3.92;;;3.00;;
21754;SDS011;11039;50.028;19.938;2024-01-15T01:08:17;4.28;;;3.70;;
21754;SDS011;11039;50.028;19.938;2024-01-15T01:10:44;4.15;;;3.20;;
21754;SDS011;11039;50.028;19.938;2024-01-15T01:13:10;3.30;;;2.83;;
21754;SDS011;11039;50.028;19.938;2024-01-15T01:15:36;4.72;;;3.25;;
21754;SDS011;11039;50.028;19.938;2024-01-15T01:18:03;4.30;;;3.38;;
21754;SDS011;11039;50.028;19.938;2024-01-15T01:20:30;3.00;;;2.70;;
21754;SDS011;11039;50.028;19.938;2024-01-15T01:22:56;3.50;;;3.08;;
21754;SDS011;11039;50.028;19.938;2024-01-15T01:25:22;3.67;;;3.17;;
21754;SDS011;11039;50.028;19.938;2024-01-15T01:27:48;4.28;;;3.60;;
21754;SDS011;11039;50.028;19.938;2024-01-15T01:30:14;3.63;;;3.20;;
21754;SDS011;11039;50.028;19.938;2024-01-15T01:32:40;3.53;;;2.95;;
21754;SDS011;11039;50.028;19.938;2024-01-15T01:35:06;3.45;;;3.10;;
21754;SDS011;11039;50.028;19.938;2024-01-15T01:37:32;3.83;;;3.20;;
21754;SDS011;11039;50.028;19.938;2024-01-15T01:39:59;3.38;;;2.95;;
21754;SDS011;11039;50.028;19.938;2024-01-15T01:42:25;3.55;;;3.05;;
21754;SDS011;11039;50.028;19.938;2024-01-15T01:44:51;4.07;;;3.30;;
21754;SDS011;11039;50.028;19.938;2024-01-15T01:47:17;3.65;;;3.10;;
21754;SDS011;11039;50.028;19.938;2024-01-15T01:49:44;3.47;;;3.10;;
21754;SDS011;11039;50.028;19.938;2024-01-15T01:52:10;4.32;;;3.10;;
21754;SDS011;11039;50.028;19.938;2024-01-15T01:54:36;3.00;;;2.70;;
21754;SDS011;11039;50.028;19.938;2024-01-15T01:57:03;4.15;;;3.15;;
21754;SDS011;11039;50.028;19.938;2024-01-15T01:59:29;2.53;;;2.30;;
21754;SDS011;11039;50.028;19.938;2024-01-15T02:01:56;3.13;;;2.63;;
21754;SDS011;11039;50.028;19.938;2024-01-15T02:04:25;2.88;;;2.58;;
21754;SDS011;11039;50.028;19.938;2024-01-15T02:06:52;3.42;;;2.58;;
21754;SDS011;11039;50.028;19.938;2024-01-15T02:09:18;3.17;;;2.88;;
21754;SDS011;11039;50.028;19.938;2024-01-15T02:11:46;2.97;;;2.63;;
21754;SDS011;11039;50.028;19.938;2024-01-15T02:14:12;3.25;;;2.75;;
21754;SDS011;11039;50.028;19.938;2024-01-15T02:16:38;3.95;;;3.03;;
21754;SDS011;11039;50.028;19.938;2024-01-15T02:19:04;3.40;;;3.10;;
21754;SDS011;11039;50.028;19.938;2024-01-15T02:21:33;3.30;;;2.55;;
21754;SDS011;11039;50.028;19.938;2024-01-15T02:23:59;3.65;;;2.80;;
21754;SDS011;11039;50.028;19.938;2024-01-15T02:26:25;3.85;;;3.35;;
21754;SDS011;11039;50.028;19.938;2024-01-15T02:28:52;2.90;;;2.60;;
21754;SDS011;11039;50.028;19.938;2024-01-15T02:31:18;3.53;;;3.08;;
21754;SDS011;11039;50.028;19.938;2024-01-15T02:33:44;2.85;;;2.58;;
21754;SDS011;11039;50.028;19.938;2024-01-15T02:36:11;3.05;;;2.63;;
21754;SDS011;11039;50.028;19.938;2024-01-15T02:38:37;3.30;;;2.95;;
21754;SDS011;11039;50.028;19.938;2024-01-15T02:41:03;2.75;;;2.55;;
21754;SDS011;11039;50.028;19.938;2024-01-15T02:43:29;2.42;;;2.20;;
21754;SDS011;11039;50.028;19.938;2024-01-15T02:45:55;3.13;;;2.80;;
21754;SDS011;11039;50.028;19.938;2024-01-15T02:48:21;2.88;;;2.30;;
21754;SDS011;11039;50.028;19.938;2024-01-15T02:50:47;3.55;;;2.65;;
21754;SDS011;11039;50.028;19.938;2024-01-15T02:53:13;2.72;;;2.50;;
21754;SDS011;11039;50.028;19.938;2024-01-15T02:55:39;3.08;;;2.63;;
21754;SDS011;11039;50.028;19.938;2024-01-15T02:58:05;2.70;;;2.22;;
21754;SDS011;11039;50.028;19.938;2024-01-15T03:00:31;2.67;;;2.40;;
21754;SDS011;11039;50.028;19.938;2024-01-15T03:02:57;3.17;;;2.70;;
21754;SDS011;11039;50.028;19.938;2024-01-15T03:05:23;3.30;;;2.53;;
21754;SDS011;11039;50.028;19.938;2024-01-15T03:07:49;3.20;;;2.50;;
21754;SDS011;11039;50.028;19.938;2024-01-15T03:10:15;3.13;;;2.72;;
21754;SDS011;11039;50.028;19.938;2024-01-15T03:12:41;2.97;;;2.40;;
21754;SDS011;11039;50.028;19.938;2024-01-15T03:15:07;2.38;;;2.10;;
21754;SDS011;11039;50.028;19.938;2024-01-15T03:17:33;2.60;;;2.40;;
21754;SDS011;11039;50.028;19.938;2024-01-15T03:19:59;3.13;;;2.50;;
21754;SDS011;11039;50.028;19.938;2024-01-15T03:22:25;2.90;;;2.60;;
21754;SDS011;11039;50.028;19.938;2024-01-15T03:24:52;3.65;;;2.60;;
21754;SDS011;11039;50.028;19.938;2024-01-15T03:27:18;2.53;;;2.30;;
21754;SDS011;11039;50.028;19.938;2024-01-15T03:30:03;2.55;;;2.25;;
21754;SDS011;11039;50.028;19.938;2024-01-15T03:32:29;2.35;;;2.15;;
21754;SDS011;11039;50.028;19.938;2024-01-15T03:34:55;2.50;;;2.20;;
21754;SDS011;11039;50.028;19.938;2024-01-15T03:37:21;2.15;;;1.95;;
21754;SDS011;11039;50.028;19.938;2024-01-15T03:39:47;2.70;;;2.50;;
21754;SDS011;11039;50.028;19.938;2024-01-15T03:42:13;2.67;;;2.40;;
21754;SDS011;11039;50.028;19.938;2024-01-15T03:44:39;2.30;;;2.10;;
21754;SDS011;11039;50.028;19.938;2024-01-15T03:47:05;2.40;;;2.20;;
21754;SDS011;11039;50.028;19.938;2024-01-15T03:49:31;2.42;;;2.20;;
21754;SDS011;11039;50.028;19.938;2024-01-15T03:54:16;2.55;;;2.22;;
21754;SDS011;11039;50.028;19.938;2024-01-15T03:56:42;2.92;;;2.30;;
21754;SDS011;11039;50.028;19.938;2024-01-15T03:59:08;2.45;;;2.25;;
21754;SDS011;11039;50.028;19.938;2024-01-15T04:01:34;2.45;;;2.25;;
21754;SDS011;11039;50.028;19.938;2024-01-15T04:04:00;2.17;;;2.00;;
21754;SDS011;11039;50.028;19.938;2024-01-15T04:06:26;2.40;;;2.20;;
21754;SDS011;11039;50.028;19.938;2024-01-15T04:08:52;2.38;;;2.17;;
21754;SDS011;11039;50.028;19.938;2024-01-15T04:11:18;2.42;;;2.22;;
21754;SDS011;11039;50.028;19.938;2024-01-15T04:13:44;2.20;;;2.00;;
21754;SDS011;11039;50.028;19.938;2024-01-15T04:16:10;2.33;;;2.10;;
21754;SDS011;11039;50.028;19.938;2024-01-15T04:18:36;2.53;;;2.33;;
21754;SDS011;11039;50.028;19.938;2024-01-15T04:21:04;2.88;;;2.50;;
21754;SDS011;11039;50.028;19.938;2024-01-15T04:23:30;2.60;;;2.13;;
21754;SDS011;11039;50.028;19.938;2024-01-15T04:25:56;2.75;;;2.10;;
21754;SDS011;11039;50.028;19.938;2024-01-15T04:28:22;2.40;;;1.92;;
21754;SDS011;11039;50.028;19.938;2024-01-15T04:30:48;2.30;;;2.10;;
21754;SDS011;11039;50.028;19.938;2024-01-15T04:33:14;2.45;;;2.25;;
21754;SDS011;11039;50.028;19.938;2024-01-15T04:35:41;2.15;;;1.95;;
21754;SDS011;11039;50.028;19.938;2024-01-15T04:38:07;2.45;;;2.17;;
21754;SDS011;11039;50.028;19.938;2024-01-15T04:40:33;2.47;;;2.28;;
21754;SDS011;11039;50.028;19.938;2024-01-15T04:42:59;1.70;;;1.60;;
21754;SDS011;11039;50.028;19.938;2024-01-15T04:45:25;2.30;;;2.00;;
21754;SDS011;11039;50.028;19.938;2024-01-15T04:47:54;2.38;;;2.00;;
21754;SDS011;11039;50.028;19.938;2024-01-15T04:50:21;2.45;;;2.25;;
21754;SDS011;11039;50.028;19.938;2024-01-15T04:52:47;2.28;;;2.08;;
21754;SDS011;11039;50.028;19.938;2024-01-15T04:55:13;2.30;;;2.10;;
21754;SDS011;11039;50.028;19.938;2024-01-15T04:57:40;2.10;;;1.90;;
21754;SDS011;11039;50.028;19.938;2024-01-15T05:00:06;1.95;;;1.80;;
21754;SDS011;11039;50.028;19.938;2024-01-15T05:02:32;2.10;;;1.80;;
21754;SDS011;11039;50.028;19.938;2024-01-15T05:04:58;2.13;;;1.90;;
21754;SDS011;11039;50.028;19.938;2024-01-15T05:07:24;1.80;;;1.70;;
21754;SDS011;11039;50.028;19.938;2024-01-15T05:09:50;1.90;;;1.70;;
21754;SDS011;11039;50.028;19.938;2024-01-15T05:12:16;2.05;;;1.80;;
21754;SDS011;11039;50.028;19.938;2024-01-15T05:14:42;2.28;;;1.80;;
21754;SDS011;11039;50.028;19.938;2024-01-15T05:17:08;2.10;;;1.90;;
21754;SDS011;11039;50.028;19.938;2024-01-15T05:19:34;1.90;;;1.70;;
21754;SDS011;11039;50.028;19.938;2024-01-15T05:22:00;2.33;;;1.88;;
21754;SDS011;11039;50.028;19.938;2024-01-15T05:24:26;1.70;;;1.60;;
21754;SDS011;11039;50.028;19.938;2024-01-15T05:26:52;2.10;;;1.80;;
21754;SDS011;11039;50.028;19.938;2024-01-15T05:29:18;2.42;;;1.80;;
21754;SDS011;11039;50.028;19.938;2024-01-15T05:31:44;1.70;;;1.60;;
21754;SDS011;11039;50.028;19.938;2024-01-15T05:34:10;2.13;;;1.92;;
21754;SDS011;11039;50.028;19.938;2024-01-15T05:36:36;2.10;;;1.90;;
21754;SDS011;11039;50.028;19.938;2024-01-15T05:39:02;2.17;;;1.98;;
21754;SDS011;11039;50.028;19.938;2024-01-15T05:41:28;1.73;;;1.63;;
21754;SDS011;11039;50.028;19.938;2024-01-15T05:43:54;1.92;;;1.83;;
21754;SDS011;11039;50.028;19.938;2024-01-15T05:46:20;1.75;;;1.65;;
21754;SDS011;11039;50.028;19.938;2024-01-15T05:48:46;1.70;;;1.60;;
21754;SDS011;11039;50.028;19.938;2024-01-15T05:51:12;2.00;;;1.80;;
21754;SDS011;11039;50.028;19.938;2024-01-15T05:53:39;1.80;;;1.40;;
21754;SDS011;11039;50.028;19.938;2024-01-15T05:56:07;2.03;;;1.83;;
21754;SDS011;11039;50.028;19.938;2024-01-15T05:58:33;3.00;;;1.80;;
21754;SDS011;11039;50.028;19.938;2024-01-15T06:00:59;1.90;;;1.70;;
21754;SDS011;11039;50.028;19.938;2024-01-15T06:03:25;1.80;;;1.60;;
21754;SDS011;11039;50.028;19.938;2024-01-15T06:05:51;1.88;;;1.67;;
21754;SDS011;11039;50.028;19.938;2024-01-15T06:08:18;1.90;;;1.58;;
21754;SDS011;11039;50.028;19.938;2024-01-15T06:10:45;2.10;;;1.90;;
21754;SDS011;11039;50.028;19.938;2024-01-15T06:13:11;1.85;;;1.73;;
21754;SDS011;11039;50.028;19.938;2024-01-15T06:15:38;1.90;;;1.70;;
21754;SDS011;11039;50.028;19.938;2024-01-15T06:18:04;1.58;;;1.48;;
21754;SDS011;11039;50.028;19.938;2024-01-15T06:20:31;1.60;;;1.50;;
21754;SDS011;11039;50.028;19.938;2024-01-15T06:22:57;1.80;;;1.70;;
21754;SDS011;11039;50.028;19.938;2024-01-15T06:25:23;1.77;;;1.63;;
21754;SDS011;11039;50.028;19.938;2024-01-15T06:27:49;1.80;;;1.70;;
21754;SDS011;11039;50.028;19.938;2024-01-15T06:30:15;1.85;;;1.50;;
21754;SDS011;11039;50.028;19.938;2024-01-15T06:32:41;3.13;;;1.80;;
21754;SDS011;11039;50.028;19.938;2024-01-15T06:35:07;1.98;;;1.70;;
21754;SDS011;11039;50.028;19.938;2024-01-15T06:37:35;1.58;;;1.45;;
21754;SDS011;11039;50.028;19.938;2024-01-15T06:40:01;2.03;;;1.70;;
21754;SDS011;11039;50.028;19.938;2024-01-15T06:42:28;1.70;;;1.60;;
21754;SDS011;11039;50.028;19.938;2024-01-15T06:44:54;1.80;;;1.63;;
21754;SDS011;11039;50.028;19.938;2024-01-15T06:47:20;2.17;;;1.73;;
21754;SDS011;11039;50.028;19.938;2024-01-15T06:49:46;1.80;;;1.70;;
21754;SDS011;11039;50.028;19.938;2024-01-15T06:52:12;1.77;;;1.67;;
21754;SDS011;11039;50.028;19.938;2024-01-15T06:54:38;1.85;;;1.50;;
21754;SDS011;11039;50.028;19.938;2024-01-15T06:57:04;1.60;;;1.50;;
21754;SDS011;11039;50.028;19.938;2024-01-15T06:59:31;1.60;;;1.33;;
21754;SDS011;11039;50.028;19.938;2024-01-15T07:01:57;1.80;;;1.70;;
21754;SDS011;11039;50.028;19.938;2024-01-15T07:04:24;1.85;;;1.70;;
21754;SDS011;11039;50.028;19.938;2024-01-15T07:06:50;2.03;;;1.73;;
21754;SDS011;11039;50.028;19.938;2024-01-15T07:09:16;2.08;;;1.88;;
21754;SDS011;11039;50.028;19.938;2024-01-15T07:11:45;1.90;;;1.45;;
21754;SDS011;11039;50.028;19.938;2024-01-15T07:14:11;1.77;;;1.60;;
21754;SDS011;11039;50.028;19.938;2024-01-15T07:16:37;1.92;;;1.83;;
21754;SDS011;11039;50.028;19.938;2024-01-15T07:19:04;2.75;;;1.95;;
21754;SDS011;11039;50.028;19.938;2024-01-15T07:21:30;1.70;;;1.60;;
21754;SDS011;11039;50.028;19.938;2024-01-15T07:23:56;2.08;;;1.55;;
21754;SDS011;11039;50.028;19.938;2024-01-15T07:26:22;2.53;;;1.60;;
21754;SDS011;11039;50.028;19.938;2024-01-15T07:28:48;2.45;;;1.85;;
21754;SDS011;11039;50.028;19.938;2024-01-15T07:31:17;2.15;;;1.95;;
21754;SDS011;11039;50.028;19.938;2024-01-15T07:33:43;2.10;;;1.90;;
21754;SDS011;11039;50.028;19.938;2024-01-15T07:36:09;1.85;;;1.60;;
21754;SDS011;11039;50.028;19.938;2024-01-15T07:38:36;1.73;;;1.60;;
21754;SDS011;11039;50.028;19.938;2024-01-15T07:41:02;1.70;;;1.60;;
21754;SDS011;11039;50.028;19.938;2024-01-15T07:43:28;1.90;;;1.75;;
21754;SDS011;11039;50.028;19.938;2024-01-15T07:45:55;1.67;;;1.58;;
21754;SDS011;11039;50.028;19.938;2024-01-15T07:48:21;2.00;;;1.80;;
21754;SDS011;11039;50.028;19.938;2024-01-15T07:50:47;1.98;;;1.77;;
21754;SDS011;11039;50.028;19.938;2024-01-15T07:53:13;2.00;;;1.80;;
21754;SDS011;11039;50.028;19.938;2024-01-15T07:55:39;2.72;;;1.90;;
21754;SDS011;11039;50.028;19.938;2024-01-15T07:58:05;1.60;;;1.50;;
21754;SDS011;11039;50.028;19.938;2024-01-15T08:00:31;2.20;;;1.67;;
21754;SDS011;11039;50.028;19.938;2024-01-15T08:02:57;2.03;;;1.83;;
21754;SDS011;11039;50.028;19.938;2024-01-15T08:05:23;1.92;;;1.70;;
21754;SDS011;11039;50.028;19.938;2024-01-15T08:07:49;2.47;;;2.10;;
21754;SDS011;11039;50.028;19.938;2024-01-15T08:10:15;1.98;;;1.80;;
21754;SDS011;11039;50.028;19.938;2024-01-15T08:12:41;1.92;;;1.70;;
21754;SDS011;11039;50.028;19.938;2024-01-15T08:15:07;1.90;;;1.70;;
21754;SDS011;11039;50.028;19.938;2024-01-15T08:17:33;2.40;;;2.03;;
21754;SDS011;11039;50.028;19.938;2024-01-15T08:19:59;2.08;;;1.73;;
21754;SDS011;11039;50.028;19.938;2024-01-15T08:22:26;2.20;;;2.00;;
21754;SDS011;11039;50.028;19.938;2024-01-15T08:24:52;2.03;;;1.80;;
21754;SDS011;11039;50.028;19.938;2024-01-15T08:27:20;2.00;;;1.80;;
21754;SDS011;11039;50.028;19.938;2024-01-15T08:29:46;2.47;;;2.10;;
21754;SDS011;11039;50.028;19.938;2024-01-15T08:32:12;1.90;;;1.80;;
21754;SDS011;11039;50.028;19.938;2024-01-15T08:34:40;2.08;;;1.88;;
21754;SDS011;11039;50.028;19.938;2024-01-15T08:37:07;1.70;;;1.60;;
21754;SDS011;11039;50.028;19.938;2024-01-15T08:39:33;2.60;;;2.38;;
21754;SDS011;11039;50.028;19.938;2024-01-15T08:41:59;2.35;;;2.10;;
21754;SDS011;11039;50.028;19.938;2024-01-15T08:44:25;1.88;;;1.75;;
21754;SDS011;11039;50.028;19.938;2024-01-15T08:46:51;2.30;;;2.10;;
21754;SDS011;11039;50.028;19.938;2024-01-15T08:49:17;1.95;;;1.83;;
21754;SDS011;11039;50.028;19.938;2024-01-15T08:51:43;2.05;;;1.85;;
21754;SDS011;11039;50.028;19.938;2024-01-15T08:54:09;2.10;;;1.90;;
21754;SDS011;11039;50.028;19.938;2024-01-15T08:56:35;1.92;;;1.80;;
21754;SDS011;11039;50.028;19.938;2024-01-15T08:59:01;2.38;;;1.98;;
21754;SDS011;11039;50.028;19.938;2024-01-15T09:01:27;2.13;;;1.90;;
21754;SDS011;11039;50.028;19.938;2024-01-15T09:03:54;2.88;;;2.42;;
21754;SDS011;11039;50.028;19.938;2024-01-15T09:06:20;2.92;;;2.13;;
21754;SDS011;11039;50.028;19.938;2024-01-15T09:08:46;2.85;;;2.40;;
21754;SDS011;11039;50.028;19.938;2024-01-15T09:11:12;2.65;;;2.28;;
21754;SDS011;11039;50.028;19.938;2024-01-15T09:13:39;2.95;;;2.60;;
21754;SDS011;11039;50.028;19.938;2024-01-15T09:16:05;2.97;;;2.67;;
21754;SDS011;11039;50.028;19.938;2024-01-15T09:18:31;4.10;;;2.70;;
21754;SDS011;11039;50.028;19.938;2024-01-15T09:20:57;3.53;;;2.85;;
21754;SDS011;11039;50.028;19.938;2024-01-15T09:23:23;4.22;;;2.70;;
21754;SDS011;11039;50.028;19.938;2024-01-15T09:25:49;6.18;;;3.13;;
21754;SDS011;11039;50.028;19.938;2024-01-15T09:28:17;4.88;;;3.20;;
21754;SDS011;11039;50.028;19.938;2024-01-15T09:30:43;4.03;;;3.35;;
21754;SDS011;11039;50.028;19.938;2024-01-15T09:33:10;6.75;;;3.80;;
21754;SDS011;11039;50.028;19.938;2024-01-15T09:35:36;12.35;;;4.35;;
21754;SDS011;11039;50.028;19.938;2024-01-15T09:38:02;7.35;;;4.15;;
21754;SDS011;11039;50.028;19.938;2024-01-15T09:40:29;5.60;;;4.13;;
21754;SDS011;11039;50.028;19.938;2024-01-15T09:42:58;9.45;;;4.30;;
21754;SDS011;11039;50.028;19.938;2024-01-15T09:45:25;11.82;;;5.20;;
21754;SDS011;11039;50.028;19.938;2024-01-15T09:47:51;8.68;;;4.90;;
21754;SDS011;11039;50.028;19.938;2024-01-15T09:50:17;13.38;;;5.35;;
21754;SDS011;11039;50.028;19.938;2024-01-15T09:52:44;10.57;;;5.28;;
21754;SDS011;11039;50.028;19.938;2024-01-15T09:55:10;15.18;;;5.63;;
21754;SDS011;11039;50.028;19.938;2024-01-15T09:57:37;12.45;;;5.68;;
21754;SDS011;11039;50.028;19.938;2024-01-15T10:00:03;11.45;;;5.78;;
21754;SDS011;11039;50.028;19.938;2024-01-15T10:02:30;11.40;;;5.63;;
21754;SDS011;11039;50.028;19.938;2024-01-15T10:04:56;9.77;;;6.20;;
21754;SDS011;11039;50.028;19.938;2024-01-15T10:07:22;13.65;;;6.50;;
21754;SDS011;11039;50.028;19.938;2024-01-15T10:09:49;12.02;;;6.53;;
21754;SDS011;11039;50.028;19.938;2024-01-15T10:12:15;14.98;;;7.38;;
21754;SDS011;11039;50.028;19.938;2024-01-15T10:14:41;12.90;;;6.75;;
21754;SDS011;11039;50.028;19.938;2024-01-15T10:17:11;17.73;;;6.70;;
21754;SDS011;11039;50.028;19.938;2024-01-15T10:19:39;10.93;;;7.05;;
21754;SDS011;11039;50.028;19.938;2024-01-15T10:22:06;10.05;;;6.45;;
21754;SDS011;11039;50.028;19.938;2024-01-15T10:24:34;12.73;;;6.88;;
21754;SDS011;11039;50.028;19.938;2024-01-15T10:27:10;13.93;;;7.18;;
21754;SDS011;11039;50.028;19.938;2024-01-15T10:29:36;12.63;;;7.90;;
21754;SDS011;11039;50.028;19.938;2024-01-15T10:32:03;10.68;;;7.15;;
21754;SDS011;11039;50.028;19.938;2024-01-15T10:34:32;13.88;;;7.35;;
21754;SDS011;11039;50.028;19.938;2024-01-15T10:36:58;13.13;;;7.60;;
21754;SDS011;11039;50.028;19.938;2024-01-15T10:39:24;10.20;;;7.70;;
21754;SDS011;11039;50.028;19.938;2024-01-15T10:41:50;10.43;;;7.30;;
21754;SDS011;11039;50.028;19.938;2024-01-15T10:44:17;12.23;;;7.40;;
21754;SDS011;11039;50.028;19.938;2024-01-15T10:46:45;11.73;;;7.70;;
21754;SDS011;11039;50.028;19.938;2024-01-15T10:49:11;13.05;;;7.72;;
21754;SDS011;11039;50.028;19.938;2024-01-15T10:51:38;11.52;;;7.22;;
21754;SDS011;11039;50.028;19.938;2024-01-15T10:56:22;13.50;;;7.43;;
21754;SDS011;11039;50.028;19.938;2024-01-15T10:58:49;16.85;;;7.78;;
21754;SDS011;11039;50.028;19.938;2024-01-15T11:01:15;12.18;;;7.78;;
21754;SDS011;11039;50.028;19.938;2024-01-15T11:03:42;13.27;;;7.78;;
21754;SDS011;11039;50.028;19.938;2024-01-15T11:06:18;12.43;;;7.70;;
21754;SDS011;11039;50.028;19.938;2024-01-15T11:08:45;13.27;;;8.05;;
21754;SDS011;11039;50.028;19.938;2024-01-15T11:11:12;12.77;;;7.32;;
21754;SDS011;11039;50.028;19.938;2024-01-15T11:16:07;17.67;;;7.97;;
21754;SDS011;11039;50.028;19.938;2024-01-15T11:23:48;12.15;;;7.60;;
21754;SDS011;11039;50.028;19.938;2024-01-15T11:28:52;10.93;;;7.65;;
21754;SDS011;11039;50.028;19.938;2024-01-15T11:31:18;11.07;;;7.95;;
21754;SDS011;11039;50.028;19.938;2024-01-15T11:33:50;13.57;;;7.40;;
21754;SDS011;11039;50.028;19.938;2024-01-15T11:36:16;12.02;;;7.97;;
21754;SDS011;11039;50.028;19.938;2024-01-15T11:38:42;11.32;;;8.05;;
21754;SDS011;11039;50.028;19.938;2024-01-15T11:41:14;11.40;;;7.60;;
21754;SDS011;11039;50.028;19.938;2024-01-15T11:43:41;9.38;;;7.82;;
21754;SDS011;11039;50.028;19.938;2024-01-15T11:46:11;11.52;;;7.70;;
21754;SDS011;11039;50.028;19.938;2024-01-15T11:48:43;11.27;;;8.05;;
21754;SDS011;11039;50.028;19.938;2024-01-15T11:51:13;12.38;;;7.93;;
21754;SDS011;11039;50.028;19.938;2024-01-15T11:53:48;10.80;;;7.90;;
21754;SDS011;11039;50.028;19.938;2024-01-15T11:56:17;10.57;;;8.13;;
21754;SDS011;11039;50.028;19.938;2024-01-15T11:58:43;10.35;;;8.00;;
21754;SDS011;11039;50.028;19.938;2024-01-15T12:01:12;11.68;;;8.20;;
21754;SDS011;11039;50.028;19.938;2024-01-15T12:03:39;10.23;;;8.23;;
21754;SDS011;11039;50.028;19.938;2024-01-15T12:06:05;11.57;;;8.10;;
21754;SDS011;11039;50.028;19.938;2024-01-15T12:08:32;11.88;;;7.75;;
21754;SDS011;11039;50.028;19.938;2024-01-15T12:10:58;10.52;;;7.47;;
21754;SDS011;11039;50.028;19.938;2024-01-15T12:13:24;10.93;;;7.72;;
21754;SDS011;11039;50.028;19.938;2024-01-15T12:15:50;11.10;;;7.22;;
21754;SDS011;11039;50.028;19.938;2024-01-15T12:18:17;11.52;;;8.00;;
21754;SDS011;11039;50.028;19.938;2024-01-15T12:20:43;10.68;;;7.68;;
21754;SDS011;11039;50.028;19.938;2024-01-15T12:23:12;9.82;;;7.60;;
21754;SDS011;11039;50.028;19.938;2024-01-15T12:25:41;9.60;;;7.65;;
21754;SDS011;11039;50.028;19.938;2024-01-15T12:28:08;9.27;;;7.07;;
21754;SDS011;11039;50.028;19.938;2024-01-15T12:30:35;11.48;;;7.20;;
21754;SDS011;11039;50.028;19.938;2024-01-15T12:33:06;11.60;;;7.63;;
21754;SDS011;11039;50.028;19.938;2024-01-15T12:35:35;8.85;;;7.10;;
21754;SDS011;11039;50.028;19.938;2024-01-15T12:38:02;9.38;;;7.22;;
21754;SDS011;11039;50.028;19.938;2024-01-15T12:40:28;11.52;;;7.20;;
21754;SDS011;11039;50.028;19.938;2024-01-15T12:42:54;9.95;;;6.97;;
21754;SDS011;11039;50.028;19.938;2024-01-15T12:45:21;8.88;;;6.80;;
21754;SDS011;11039;50.028;19.938;2024-01-15T12:47:47;9.70;;;6.97;;
21754;SDS011;11039;50.028;19.938;2024-01-15T12:50:13;8.90;;;6.70;;
21754;SDS011;11039;50.028;19.938;2024-01-15T12:52:40;8.32;;;6.38;;
21754;SDS011;11039;50.028;19.938;2024-01-15T12:55:07;8.18;;;6.50;;
21754;SDS011;11039;50.028;19.938;2024-01-15T12:57:37;9.43;;;6.55;;
21754;SDS011;11039;50.028;19.938;2024-01-15T13:00:04;10.93;;;7.00;;
21754;SDS011;11039;50.028;19.938;2024-01-15T13:02:32;8.38;;;6.70;;
21754;SDS011;11039;50.028;19.938;2024-01-15T13:04:59;9.45;;;6.68;;
21754;SDS011;11039;50.028;19.938;2024-01-15T13:07:25;8.95;;;6.50;;
21754;SDS011;11039;50.028;19.938;2024-01-15T13:09:51;8.77;;;6.05;;
21754;SDS011;11039;50.028;19.938;2024-01-15T13:12:19;8.30;;;6.55;;
21754;SDS011;11039;50.028;19.938;2024-01-15T13:14:45;8.38;;;6.60;;
21754;SDS011;11039;50.028;19.938;2024-01-15T13:17:12;9.25;;;6.18;;
21754;SDS011;11039;50.028;19.938;2024-01-15T13:19:39;7.60;;;6.22;;
21754;SDS011;11039;50.028;19.938;2024-01-15T13:22:05;7.20;;;6.05;;
21754;SDS011;11039;50.028;19.938;2024-01-15T13:24:35;9.98;;;6.47;;
21754;SDS011;11039;50.028;19.938;2024-01-15T13:27:04;7.47;;;6.25;;
21754;SDS011;11039;50.028;19.938;2024-01-15T13:29:31;7.97;;;6.05;;
21754;SDS011;11039;50.028;19.938;2024-01-15T13:32:00;7.53;;;6.18;;
21754;SDS011;11039;50.028;19.938;2024-01-15T13:34:26;8.32;;;6.45;;
21754;SDS011;11039;50.028;19.938;2024-01-15T13:36:52;8.18;;;6.35;;
21754;SDS011;11039;50.028;19.938;2024-01-15T13:39:18;7.20;;;5.93;;
21754;SDS011;11039;50.028;19.938;2024-01-15T13:41:48;7.35;;;6.30;;
21754;SDS011;11039;50.028;19.938;2024-01-15T13:44:14;9.00;;;6.03;;
21754;SDS011;11039;50.028;19.938;2024-01-15T13:46:40;6.63;;;5.68;;
21754;SDS011;11039;50.028;19.938;2024-01-15T13:49:06;7.82;;;5.68;;
21754;SDS011;11039;50.028;19.938;2024-01-15T13:51:34;7.03;;;5.50;;
21754;SDS011;11039;50.028;19.938;2024-01-15T13:54:01;6.75;;;5.97;;
21754;SDS011;11039;50.028;19.938;2024-01-15T13:56:29;7.20;;;5.65;;
21754;SDS011;11039;50.028;19.938;2024-01-15T13:58:57;7.57;;;5.53;;
21754;SDS011;11039;50.028;19.938;2024-01-15T14:01:23;6.55;;;5.13;;
21754;SDS011;11039;50.028;19.938;2024-01-15T14:03:50;6.80;;;5.45;;
21754;SDS011;11039;50.028;19.938;2024-01-15T14:06:15;6.32;;;4.63;;
21754;SDS011;11039;50.028;19.938;2024-01-15T14:08:41;8.40;;;4.93;;
21754;SDS011;11039;50.028;19.938;2024-01-15T14:11:07;6.57;;;5.18;;
21754;SDS011;11039;50.028;19.938;2024-01-15T14:13:35;7.57;;;5.07;;
21754;SDS011;11039;50.028;19.938;2024-01-15T14:16:01;6.70;;;4.75;;
21754;SDS011;11039;50.028;19.938;2024-01-15T14:18:27;6.47;;;4.68;;
21754;SDS011;11039;50.028;19.938;2024-01-15T14:20:53;5.75;;;4.45;;
21754;SDS011;11039;50.028;19.938;2024-01-15T14:23:19;6.85;;;4.75;;
21754;SDS011;11039;50.028;19.938;2024-01-15T14:25:45;5.97;;;4.47;;
21754;SDS011;11039;50.028;19.938;2024-01-15T14:28:11;5.20;;;4.43;;
21754;SDS011;11039;50.028;19.938;2024-01-15T14:30:37;5.53;;;4.63;;
21754;SDS011;11039;50.028;19.938;2024-01-15T14:33:03;5.10;;;4.10;;
21754;SDS011;11039;50.028;19.938;2024-01-15T14:35:30;5.95;;;4.32;;
21754;SDS011;11039;50.028;19.938;2024-01-15T14:37:56;5.13;;;4.38;;
21754;SDS011;11039;50.028;19.938;2024-01-15T14:40:23;4.65;;;4.00;;
21754;SDS011;11039;50.028;19.938;2024-01-15T14:42:49;5.72;;;4.30;;